Time;durP1;ratioP1;P1;durP2;ratioP2;P2;SDS_P1;SDS_P2;PMS_P1;PMS_P2;Temp;Humidity;BMP_temperature;BMP_pressure;BME280_temperature;BME280_humidity;BME280_pressure;Samples;Min_cycle;Max_cycle;Signal;HPM_P1;HPM_P2
2023/12/29 00:01:12;;;;;;;12.80;7.90;;;8.50;99.90;;;;;;472677;243;27746;-81
2023/12/29 00:03:13;;;;;;;7.80;6.97;;;8.40;99.90;;;;;;472650;243;28024;-82
2023/12/29 00:05:14;;;;;;;13.50;6.93;;;8.40;99.90;;;;;;472668;243;28111;-80
2023/12/29 00:07:16;;;;;;;10.43;8.03;;;8.40;99.90;;;;;;472851;245;28068;-82
2023/12/29 00:09:19;;;;;;;8.80;7.20;;;8.50;99.90;;;;;;480800;242;27901;-81
2023/12/29 00:11:18;;;;;;;9.30;6.70;;;8.40;99.90;;;;;;480757;243;28102;-83
2023/12/29 00:13:22;;;;;;;10.33;7.63;;;8.50;99.90;;;;;;475792;244;27987;-81
2023/12/29 00:15:21;;;;;;;9.00;7.27;;;8.50;99.90;;;;;;472567;246;28089;-81
2023/12/29 00:17:22;;;;;;;9.30;7.17;;;8.50;99.90;;;;;;472699;244;28003;-83
2023/12/29 00:19:23;;;;;;;9.97;7.40;;;8.40;99.90;;;;;;473132;244;27997;-81
2023/12/29 00:21:24;;;;;;;11.17;7.67;;;8.40;99.90;;;;;;472752;243;27971;-84
2023/12/29 00:23:26;;;;;;;9.70;7.30;;;8.40;99.90;;;;;;472699;245;28109;-81
2023/12/29 00:25:27;;;;;;;10.33;7.83;;;8.40;99.90;;;;;;472728;243;28787;-84
2023/12/29 00:27:28;;;;;;;9.20;7.50;;;8.40;99.90;;;;;;473288;243;28730;-81
2023/12/29 00:29:32;;;;;;;11.00;8.63;;;8.50;99.90;;;;;;480815;242;28590;-82
2023/12/29 00:31:31;;;;;;;8.80;7.63;;;8.40;99.90;;;;;;480782;242;27878;-82
2023/12/29 00:33:32;;;;;;;9.53;7.67;;;8.30;99.90;;;;;;480854;242;29320;-82
2023/12/29 00:35:33;;;;;;;8.40;7.50;;;8.30;99.90;;;;;;480829;242;27730;-82
2023/12/29 00:37:34;;;;;;;13.73;8.20;;;8.40;99.90;;;;;;480638;241;27976;-82
2023/12/29 00:39:38;;;;;;;11.60;8.30;;;8.40;99.90;;;;;;472934;244;27895;-83
2023/12/29 00:41:40;;;;;;;10.10;7.13;;;8.40;99.90;;;;;;472702;246;28409;-80
2023/12/29 00:43:41;;;;;;;9.27;8.23;;;8.40;99.90;;;;;;472709;246;27788;-80
2023/12/29 00:45:42;;;;;;;11.30;7.80;;;8.40;99.90;;;;;;472727;246;28604;-81
2023/12/29 00:47:44;;;;;;;9.30;8.13;;;8.40;99.90;;;;;;472713;247;28587;-81
2023/12/29 00:49:45;;;;;;;9.10;8.13;;;8.50;99.90;;;;;;472657;246;28002;-80
2023/12/29 00:51:46;;;;;;;9.90;7.67;;;8.50;99.90;;;;;;472281;246;27907;-81
2023/12/29 00:53:47;;;;;;;12.30;8.43;;;8.40;99.90;;;;;;472648;247;28186;-81
2023/12/29 00:55:48;;;;;;;7.90;7.10;;;8.40;99.90;;;;;;472748;247;28132;-82
2023/12/29 00:57:50;;;;;;;8.13;6.53;;;8.40;99.90;;;;;;473651;244;27967;-79
2023/12/29 00:59:51;;;;;;;8.97;8.00;;;8.40;99.90;;;;;;472773;245;28040;-81
2023/12/29 01:01:52;;;;;;;9.83;7.30;;;8.40;99.90;;;;;;472757;245;28163;-81
2023/12/29 01:03:54;;;;;;;9.80;7.50;;;8.40;99.90;;;;;;472715;248;28073;-82
2023/12/29 01:05:55;;;;;;;9.00;7.40;;;8.40;99.90;;;;;;472719;245;28021;-81
2023/12/29 01:07:56;;;;;;;12.17;7.50;;;8.40;99.90;;;;;;472692;243;27673;-82
2023/12/29 01:09:57;;;;;;;14.00;7.60;;;8.40;99.90;;;;;;472710;243;27987;-80
2023/12/29 01:11:58;;;;;;;8.00;7.20;;;8.30;99.90;;;;;;472765;245;28094;-81
2023/12/29 01:14:00;;;;;;;7.73;6.03;;;8.30;99.90;;;;;;472721;243;28648;-80
2023/12/29 01:16:01;;;;;;;9.20;6.90;;;8.30;99.90;;;;;;472752;243;28451;-80
2023/12/29 01:18:02;;;;;;;8.73;6.70;;;8.30;99.90;;;;;;475890;244;29034;-82
2023/12/29 01:20:04;;;;;;;7.93;6.83;;;8.30;99.90;;;;;;473122;244;28136;-81
2023/12/29 01:22:05;;;;;;;8.53;6.17;;;8.30;99.90;;;;;;472655;247;28637;-82
2023/12/29 01:24:07;;;;;;;8.57;6.40;;;8.30;99.90;;;;;;472727;246;27992;-83
2023/12/29 01:26:07;;;;;;;9.57;7.00;;;8.30;99.90;;;;;;472724;246;27943;-83
2023/12/29 01:28:08;;;;;;;8.07;6.50;;;8.40;99.90;;;;;;473871;243;28094;-84
2023/12/29 01:30:10;;;;;;;7.50;6.10;;;8.30;99.90;;;;;;481884;241;27797;-82
2023/12/29 01:32:11;;;;;;;8.17;5.97;;;8.40;99.90;;;;;;481904;241;27739;-80
2023/12/29 01:34:12;;;;;;;7.30;5.90;;;8.40;99.90;;;;;;481674;241;27722;-81
2023/12/29 01:36:13;;;;;;;7.90;5.97;;;8.40;99.90;;;;;;481845;243;27525;-80
2023/12/29 01:38:15;;;;;;;7.20;5.90;;;8.40;99.90;;;;;;477762;243;27862;-82
2023/12/29 01:40:17;;;;;;;7.17;5.40;;;8.40;99.90;;;;;;472709;246;27757;-84
2023/12/29 01:42:17;;;;;;;7.67;5.87;;;8.40;99.90;;;;;;472668;248;27999;-82
2023/12/29 01:44:22;;;;;;;7.27;5.10;;;8.40;99.90;;;;;;472666;247;27827;-83
2023/12/29 01:46:20;;;;;;;9.27;5.27;;;8.40;99.90;;;;;;472381;247;28080;-81
2023/12/29 01:48:21;;;;;;;7.30;5.20;;;8.40;99.90;;;;;;473230;243;27866;-83
2023/12/29 01:50:23;;;;;;;5.67;5.10;;;8.40;99.90;;;;;;472759;243;28636;-82
2023/12/29 01:52:23;;;;;;;7.50;5.10;;;8.30;99.90;;;;;;489257;236;27823;-65
2023/12/29 01:54:25;;;;;;;6.10;4.70;;;8.30;99.90;;;;;;492237;240;27758;-65
2023/12/29 01:56:26;;;;;;;7.50;5.20;;;8.30;99.90;;;;;;492897;237;27983;-65
2023/12/29 01:58:27;;;;;;;7.27;4.90;;;8.40;99.90;;;;;;485920;236;27954;-65
2023/12/29 02:00:29;;;;;;;5.40;4.73;;;8.30;99.90;;;;;;489598;243;28666;-65
2023/12/29 02:02:30;;;;;;;6.50;4.87;;;8.30;99.90;;;;;;489507;242;28432;-65
2023/12/29 02:04:31;;;;;;;5.57;5.00;;;8.30;99.90;;;;;;489534;242;28528;-65
2023/12/29 02:06:32;;;;;;;5.43;4.50;;;8.30;99.90;;;;;;489550;242;28423;-65
2023/12/29 02:08:33;;;;;;;5.23;3.87;;;8.40;99.90;;;;;;483013;242;28562;-64
2023/12/29 02:10:35;;;;;;;7.03;4.87;;;8.30;99.90;;;;;;479818;247;28397;-65
2023/12/29 02:12:39;;;;;;;5.00;4.43;;;8.30;99.90;;;;;;479814;247;28023;-65
2023/12/29 02:14:40;;;;;;;5.97;4.50;;;8.30;99.90;;;;;;479696;247;28083;-64
2023/12/29 02:16:41;;;;;;;6.70;4.47;;;8.30;99.90;;;;;;479763;247;27673;-67
2023/12/29 02:18:43;;;;;;;5.20;3.90;;;8.30;99.90;;;;;;477382;238;28432;-65
2023/12/29 02:20:44;;;;;;;9.63;4.73;;;8.30;99.90;;;;;;482888;245;28417;-66
2023/12/29 02:22:45;;;;;;;6.80;4.20;;;8.30;99.90;;;;;;482848;246;28215;-66
2023/12/29 02:24:46;;;;;;;5.63;4.83;;;8.30;99.90;;;;;;482903;246;28445;-64
2023/12/29 02:26:48;;;;;;;7.07;4.00;;;8.30;99.90;;;;;;482249;246;28535;-66
2023/12/29 02:28:49;;;;;;;6.63;4.90;;;8.30;99.90;;;;;;465232;242;27906;-65
2023/12/29 02:30:50;;;;;;;5.20;4.70;;;8.30;99.90;;;;;;459909;259;28032;-65
2023/12/29 02:32:51;;;;;;;5.93;4.63;;;8.30;99.90;;;;;;459793;258;27952;-65
2023/12/29 02:34:53;;;;;;;5.13;4.50;;;8.30;99.90;;;;;;459799;258;27928;-66
2023/12/29 02:36:54;;;;;;;7.70;5.13;;;8.30;99.90;;;;;;459818;259;27863;-65
2023/12/29 02:38:55;;;;;;;6.67;4.70;;;8.30;99.90;;;;;;459916;259;27873;-65
2023/12/29 02:40:56;;;;;;;6.87;5.00;;;8.30;99.90;;;;;;459803;259;27931;-65
2023/12/29 02:42:58;;;;;;;6.53;4.70;;;8.30;99.90;;;;;;459924;259;28460;-66
2023/12/29 02:44:59;;;;;;;6.27;4.80;;;8.30;99.90;;;;;;459876;259;27792;-66
2023/12/29 02:47:00;;;;;;;7.93;4.93;;;8.30;99.90;;;;;;459928;259;27930;-66
2023/12/29 02:49:01;;;;;;;8.43;5.10;;;8.30;99.90;;;;;;461534;246;28624;-66
2023/12/29 02:51:03;;;;;;;6.53;5.10;;;8.30;99.90;;;;;;471375;252;28562;-66
2023/12/29 02:53:07;;;;;;;7.70;5.83;;;8.40;99.90;;;;;;471397;252;28357;-65
2023/12/29 02:55:08;;;;;;;9.70;5.40;;;8.30;99.90;;;;;;471357;252;27943;-66
2023/12/29 02:59:30;;;;;;;7.43;4.70;;;8.40;99.90;;;;;;477042;248;28476;-65
2023/12/29 03:01:31;;;;;;;9.03;5.90;;;8.30;99.90;;;;;;477068;249;28376;-65
2023/12/29 03:03:32;;;;;;;7.90;5.10;;;8.30;99.90;;;;;;477406;249;29793;-66
2023/12/29 03:05:33;;;;;;;7.63;5.33;;;8.30;99.90;;;;;;469436;253;27932;-65
2023/12/29 03:09:55;;;;;;;13.07;6.60;;;8.40;99.90;;;;;;459899;254;28028;-66
2023/12/29 03:11:57;;;;;;;6.67;4.87;;;8.30;99.90;;;;;;464029;256;27915;-66
2023/12/29 03:13:58;;;;;;;8.40;5.63;;;8.40;99.90;;;;;;461388;256;27824;-65
2023/12/29 03:15:59;;;;;;;9.20;5.27;;;8.40;99.90;;;;;;464029;255;28044;-65
2023/12/29 03:18:00;;;;;;;8.47;5.30;;;8.40;99.90;;;;;;468303;239;27807;-66
2023/12/29 03:20:02;;;;;;;6.67;5.67;;;8.40;99.90;;;;;;475491;250;27922;-66
2023/12/29 03:22:03;;;;;;;7.83;5.87;;;8.40;99.90;;;;;;475481;250;27568;-65
2023/12/29 03:24:04;;;;;;;6.90;5.23;;;8.30;99.90;;;;;;475460;250;28443;-65
2023/12/29 03:26:05;;;;;;;7.83;5.20;;;8.30;99.90;;;;;;477008;246;28138;-66
2023/12/29 03:28:07;;;;;;;6.70;5.07;;;8.30;99.90;;;;;;477719;239;27935;-66
2023/12/29 03:30:08;;;;;;;7.10;5.20;;;8.30;99.90;;;;;;496466;239;28373;-66
2023/12/29 03:32:09;;;;;;;6.40;4.70;;;8.30;99.90;;;;;;495800;239;28547;-65
2023/12/29 03:34:10;;;;;;;6.80;4.80;;;8.30;99.90;;;;;;492487;241;28144;-65
2023/12/29 03:36:12;;;;;;;5.70;5.10;;;8.30;99.90;;;;;;493047;239;28017;-65
2023/12/29 03:38:14;;;;;;;6.40;5.17;;;8.30;99.90;;;;;;486671;237;27970;-65
2023/12/29 03:40:14;;;;;;;5.63;4.73;;;8.30;99.90;;;;;;479667;248;27973;-65
2023/12/29 03:42:15;;;;;;;5.63;5.03;;;8.30;99.90;;;;;;479691;246;27736;-66
2023/12/29 03:44:17;;;;;;;7.10;5.30;;;8.30;99.90;;;;;;478339;248;28145;-67
2023/12/29 03:46:18;;;;;;;7.63;5.03;;;8.20;99.90;;;;;;478347;248;27870;-66
2023/12/29 03:48:19;;;;;;;6.20;4.97;;;8.20;99.90;;;;;;479271;239;27851;-65
2023/12/29 03:50:20;;;;;;;7.63;4.90;;;8.20;99.90;;;;;;474986;246;27995;-66
2023/12/29 03:52:22;;;;;;;5.03;4.57;;;8.30;99.90;;;;;;470741;252;28041;-66
2023/12/29 03:54:23;;;;;;;7.10;5.07;;;8.20;99.90;;;;;;469375;251;27745;-66
2023/12/29 03:56:24;;;;;;;5.87;4.57;;;8.30;99.90;;;;;;471298;251;27983;-66
2023/12/29 03:58:25;;;;;;;6.30;5.43;;;8.30;99.90;;;;;;476977;245;28028;-65
2023/12/29 04:00:27;;;;;;;7.50;4.70;;;8.30;99.90;;;;;;483739;245;27864;-66
2023/12/29 04:02:28;;;;;;;7.43;5.03;;;8.30;99.90;;;;;;483788;246;27855;-65
2023/12/29 04:04:29;;;;;;;4.67;4.23;;;8.30;99.90;;;;;;483731;246;28463;-66
2023/12/29 04:06:31;;;;;;;6.77;4.63;;;8.30;99.90;;;;;;483789;245;28087;-65
2023/12/29 04:08:32;;;;;;;11.20;4.83;;;8.30;99.90;;;;;;476506;241;28506;-66
2023/12/29 04:10:33;;;;;;;4.60;4.20;;;8.30;99.90;;;;;;472304;251;28377;-65
2023/12/29 04:12:34;;;;;;;4.83;4.33;;;8.30;99.90;;;;;;472295;251;27839;-65
2023/12/29 04:14:35;;;;;;;5.97;4.60;;;8.30;99.90;;;;;;472264;251;27947;-66
2023/12/29 04:16:40;;;;;;;6.90;3.80;;;8.30;99.90;;;;;;472289;251;27950;-65
2023/12/29 04:18:38;;;;;;;8.27;4.80;;;8.30;99.90;;;;;;482873;241;28013;-66
2023/12/29 04:20:39;;;;;;;4.47;4.03;;;8.30;99.90;;;;;;483577;245;27767;-67
2023/12/29 04:22:40;;;;;;;5.80;4.10;;;8.30;99.90;;;;;;489625;243;28169;-65
2023/12/29 04:24:42;;;;;;;5.03;4.53;;;8.40;99.90;;;;;;483566;245;27937;-67
2023/12/29 04:26:43;;;;;;;7.60;4.63;;;8.40;99.90;;;;;;489651;243;27924;-65
2023/12/29 04:28:44;;;;;;;6.50;5.10;;;8.40;99.90;;;;;;478888;245;27815;-66
2023/12/29 04:30:45;;;;;;;6.97;5.23;;;8.40;99.90;;;;;;481889;247;28147;-67
2023/12/29 04:32:47;;;;;;;5.10;4.60;;;8.40;99.90;;;;;;482345;246;28457;-65
2023/12/29 04:34:48;;;;;;;5.63;4.10;;;8.40;99.90;;;;;;482311;246;28418;-65
2023/12/29 04:36:49;;;;;;;4.37;3.97;;;8.40;99.90;;;;;;482339;246;28448;-65
2023/12/29 04:38:50;;;;;;;7.53;4.80;;;8.40;99.90;;;;;;482339;246;28561;-65
2023/12/29 04:40:52;;;;;;;7.13;4.50;;;8.50;99.90;;;;;;482336;245;27991;-66
2023/12/29 04:42:53;;;;;;;5.13;4.63;;;8.40;99.90;;;;;;482335;245;27499;-65
2023/12/29 04:44:54;;;;;;;7.13;4.73;;;8.40;99.90;;;;;;482284;246;27750;-65
2023/12/29 04:46:55;;;;;;;6.97;5.03;;;8.40;99.90;;;;;;482330;245;28313;-65
2023/12/29 04:48:57;;;;;;;5.73;4.33;;;8.40;99.90;;;;;;482334;246;27630;-65
2023/12/29 04:50:58;;;;;;;8.23;4.60;;;8.40;99.90;;;;;;482328;246;27951;-66
2023/12/29 04:52:59;;;;;;;4.87;4.33;;;8.40;99.90;;;;;;482331;246;27963;-65
2023/12/29 04:55:00;;;;;;;6.43;4.40;;;8.40;99.90;;;;;;482301;245;27749;-66
2023/12/29 04:57:02;;;;;;;5.37;4.17;;;8.40;99.90;;;;;;482293;245;28208;-65
2023/12/29 04:59:03;;;;;;;4.90;4.37;;;8.40;99.90;;;;;;474677;238;27992;-65
2023/12/29 05:01:04;;;;;;;4.50;4.00;;;8.50;99.90;;;;;;472192;250;27865;-65
2023/12/29 05:03:05;;;;;;;4.33;3.93;;;8.40;99.90;;;;;;472177;248;28231;-65
2023/12/29 05:05:07;;;;;;;5.17;4.00;;;8.40;99.90;;;;;;472123;250;27763;-65
2023/12/29 05:07:08;;;;;;;4.43;4.03;;;8.40;99.90;;;;;;472215;250;27972;-65
2023/12/29 05:09:09;;;;;;;4.50;4.00;;;8.40;99.90;;;;;;478356;241;27941;-65
2023/12/29 05:11:10;;;;;;;3.80;3.50;;;8.40;99.90;;;;;;478154;247;28533;-65
2023/12/29 05:13:12;;;;;;;5.67;3.93;;;8.40;99.90;;;;;;478147;247;28317;-65
2023/12/29 05:15:13;;;;;;;6.60;3.80;;;8.50;99.90;;;;;;477614;245;28171;-65
2023/12/29 05:19:18;;;;;;;4.83;4.00;;;8.40;99.90;;;;;;479654;240;27535;-67
2023/12/29 05:21:20;;;;;;;5.67;3.60;;;8.40;99.90;;;;;;479971;248;28086;-64
2023/12/29 05:23:20;;;;;;;5.90;4.40;;;8.40;99.90;;;;;;497843;239;27486;-66
2023/12/29 05:25:24;;;;;;;4.30;3.60;;;8.40;99.90;;;;;;478960;248;28471;-66
2023/12/29 05:29:23;;;;;;;3.77;3.47;;;8.40;99.90;;;;;;494687;239;27946;-65
2023/12/29 05:31:24;;;;;;;3.80;3.50;;;8.40;99.90;;;;;;495025;240;28033;-65
2023/12/29 05:33:26;;;;;;;6.10;3.77;;;8.40;99.90;;;;;;494974;240;28648;-66
2023/12/29 05:35:27;;;;;;;5.50;3.90;;;8.40;99.90;;;;;;494534;240;27800;-66
2023/12/29 05:37:28;;;;;;;4.13;3.83;;;8.40;99.90;;;;;;488434;243;27917;-67
2023/12/29 05:39:29;;;;;;;7.70;4.30;;;8.40;99.90;;;;;;477958;247;27407;-66
2023/12/29 05:41:31;;;;;;;4.90;4.50;;;8.40;99.90;;;;;;477982;249;27803;-66
2023/12/29 05:43:32;;;;;;;3.60;3.30;;;8.40;99.90;;;;;;477934;244;27771;-65
2023/12/29 05:45:33;;;;;;;5.10;3.67;;;8.40;99.90;;;;;;477972;249;27891;-65
2023/12/29 05:47:34;;;;;;;4.40;4.00;;;8.40;99.90;;;;;;479135;236;27887;-66
2023/12/29 05:49:39;;;;;;;4.20;3.80;;;8.40;99.90;;;;;;495412;240;27587;-66
2023/12/29 05:51:37;;;;;;;4.07;3.63;;;8.40;99.90;;;;;;495174;240;27949;-65
2023/12/29 05:53:38;;;;;;;4.27;3.87;;;8.30;99.90;;;;;;487130;244;27492;-65
2023/12/29 05:55:39;;;;;;;3.73;3.43;;;8.30;99.90;;;;;;487219;244;27725;-65
2023/12/29 05:57:40;;;;;;;5.20;4.00;;;8.30;99.90;;;;;;483736;241;27720;-67
2023/12/29 05:59:42;;;;;;;4.33;3.93;;;8.40;99.90;;;;;;465948;255;28062;-65
2023/12/29 06:01:43;;;;;;;4.30;3.90;;;8.30;99.90;;;;;;465973;255;27877;-66
2023/12/29 06:03:44;;;;;;;4.40;3.93;;;8.30;99.90;;;;;;465930;255;28364;-64
2023/12/29 06:05:46;;;;;;;6.63;4.00;;;8.30;99.90;;;;;;465978;255;28390;-65
2023/12/29 06:07:47;;;;;;;4.97;4.57;;;8.30;99.90;;;;;;471786;236;28060;-66
2023/12/29 06:09:48;;;;;;;15.37;4.20;;;8.40;99.90;;;;;;487525;244;27794;-65
2023/12/29 06:11:49;;;;;;;4.97;3.80;;;8.30;99.90;;;;;;487569;244;27900;-66
2023/12/29 06:13:51;;;;;;;3.60;3.30;;;8.30;99.90;;;;;;487499;244;27703;-65
2023/12/29 06:15:52;;;;;;;5.23;3.97;;;8.40;99.90;;;;;;487565;244;27645;-65
2023/12/29 06:17:53;;;;;;;7.47;3.70;;;8.40;99.90;;;;;;485708;239;27898;-65
2023/12/29 06:19:54;;;;;;;6.23;3.80;;;8.40;99.90;;;;;;481940;242;28486;-65
2023/12/29 06:21:56;;;;;;;4.37;3.97;;;8.40;99.90;;;;;;482609;244;27832;-66
2023/12/29 06:23:57;;;;;;;4.50;4.07;;;8.40;99.90;;;;;;482914;246;28023;-66
2023/12/29 06:25:59;;;;;;;6.47;4.10;;;8.30;99.90;;;;;;483149;246;27986;-65
2023/12/29 06:28:00;;;;;;;3.97;3.60;;;8.40;99.90;;;;;;482654;236;28011;-65
2023/12/29 06:30:01;;;;;;;5.00;3.73;;;8.40;99.90;;;;;;477210;243;27749;-65
2023/12/29 06:32:02;;;;;;;7.00;3.97;;;8.40;99.90;;;;;;476073;250;27884;-65
2023/12/29 06:34:04;;;;;;;4.43;3.70;;;8.40;99.90;;;;;;476049;250;27783;-64
2023/12/29 06:36:05;;;;;;;4.37;3.90;;;8.40;99.90;;;;;;478049;245;27704;-66
2023/12/29 06:38:06;;;;;;;3.50;3.20;;;8.30;99.90;;;;;;480777;236;27789;-66
2023/12/29 06:40:07;;;;;;;4.77;3.23;;;8.30;99.90;;;;;;486093;245;28177;-65
2023/12/29 06:42:09;;;;;;;4.37;3.43;;;8.30;99.90;;;;;;485607;242;27982;-65
2023/12/29 06:44:10;;;;;;;5.87;2.93;;;8.30;99.90;;;;;;484739;245;28493;-65
2023/12/29 06:46:13;;;;;;;4.17;3.13;;;8.30;99.90;;;;;;484930;245;28370;-66
2023/12/29 06:48:12;;;;;;;6.00;3.40;;;8.30;99.90;;;;;;484777;245;27983;-65
2023/12/29 06:50:14;;;;;;;3.40;3.13;;;8.30;99.90;;;;;;484895;245;28281;-66
2023/12/29 06:52:15;;;;;;;4.90;2.90;;;8.30;99.90;;;;;;484897;245;28545;-65
2023/12/29 06:54:16;;;;;;;3.20;2.60;;;8.30;99.90;;;;;;484909;245;27866;-66
2023/12/29 06:56:20;;;;;;;5.40;2.93;;;8.30;99.90;;;;;;484940;245;27526;-67
2023/12/29 06:58:19;;;;;;;3.30;2.77;;;8.40;99.90;;;;;;484818;245;27755;-65
2023/12/29 07:00:20;;;;;;;3.10;2.80;;;8.30;99.90;;;;;;484932;245;27845;-65
2023/12/29 07:02:21;;;;;;;4.50;2.90;;;8.40;99.90;;;;;;484914;245;27590;-65
2023/12/29 07:04:22;;;;;;;4.57;3.20;;;8.30;99.90;;;;;;484902;245;27823;-66
2023/12/29 07:06:24;;;;;;;3.40;3.10;;;8.30;99.90;;;;;;485044;241;28027;-67
2023/12/29 07:08:25;;;;;;;4.30;3.20;;;8.30;99.90;;;;;;485396;245;27620;-66
2023/12/29 07:10:26;;;;;;;4.57;2.97;;;8.30;99.90;;;;;;485364;245;27726;-66
2023/12/29 07:12:28;;;;;;;4.03;3.30;;;8.40;99.90;;;;;;485388;245;28143;-66
2023/12/29 07:14:29;;;;;;;2.70;2.50;;;8.40;99.90;;;;;;485389;245;27977;-66
2023/12/29 07:16:30;;;;;;;9.40;3.20;;;8.40;99.90;;;;;;485399;245;27969;-67
2023/12/29 07:18:31;;;;;;;3.87;3.57;;;8.30;99.90;;;;;;485377;245;27854;-66
2023/12/29 07:20:32;;;;;;;4.10;3.50;;;8.30;99.90;;;;;;485399;245;27615;-66
2023/12/29 07:22:34;;;;;;;4.50;3.53;;;8.40;99.90;;;;;;485391;245;28001;-67
2023/12/29 07:24:35;;;;;;;8.77;3.67;;;8.40;99.90;;;;;;485345;245;27995;-67
2023/12/29 07:26:36;;;;;;;6.87;3.43;;;8.40;99.90;;;;;;484967;245;27965;-65
2023/12/29 07:28:37;;;;;;;5.20;3.37;;;8.40;99.90;;;;;;485404;245;28454;-67
2023/12/29 07:30:39;;;;;;;4.10;3.23;;;8.40;99.90;;;;;;485389;245;28444;-66
2023/12/29 07:32:40;;;;;;;5.00;3.43;;;8.40;99.90;;;;;;484896;245;28330;-67
2023/12/29 07:34:44;;;;;;;3.23;2.97;;;8.40;99.90;;;;;;485355;245;28530;-67
2023/12/29 07:36:42;;;;;;;6.23;3.17;;;8.40;99.90;;;;;;484690;245;27641;-66
2023/12/29 07:38:44;;;;;;;6.00;3.00;;;8.40;99.90;;;;;;484951;245;28035;-65
2023/12/29 07:40:45;;;;;;;6.20;3.67;;;8.40;99.90;;;;;;483431;246;27821;-65
2023/12/29 07:42:50;;;;;;;9.63;3.53;;;8.40;99.90;;;;;;483432;246;28319;-65
2023/12/29 07:44:48;;;;;;;3.33;3.00;;;8.40;99.90;;;;;;483206;246;28433;-66
2023/12/29 07:46:49;;;;;;;5.50;2.93;;;8.50;99.90;;;;;;483414;246;28469;-65
2023/12/29 07:48:50;;;;;;;5.10;3.47;;;8.50;99.90;;;;;;483447;246;28522;-66
2023/12/29 07:50:51;;;;;;;3.40;2.70;;;8.50;99.90;;;;;;483413;246;28943;-65
2023/12/29 07:52:53;;;;;;;3.13;2.93;;;8.50;99.90;;;;;;483441;246;28383;-65
2023/12/29 07:54:54;;;;;;;5.63;3.17;;;8.50;99.90;;;;;;483358;246;28000;-66
2023/12/29 07:56:55;;;;;;;4.30;3.40;;;8.50;99.90;;;;;;483381;246;28019;-66
2023/12/29 07:58:56;;;;;;;4.20;2.60;;;8.60;99.90;;;;;;478756;246;28228;-66
2023/12/29 08:00:57;;;;;;;4.57;3.30;;;8.60;99.90;;;;;;478341;246;27836;-65
2023/12/29 08:02:59;;;;;;;4.00;3.00;;;8.60;99.90;;;;;;475645;248;27849;-66
2023/12/29 08:05:03;;;;;;;3.50;3.20;;;8.60;99.90;;;;;;475097;250;28141;-65
2023/12/29 08:07:04;;;;;;;3.90;3.40;;;8.60;99.90;;;;;;475133;250;28390;-65
2023/12/29 08:09:07;;;;;;;8.40;3.13;;;8.50;99.90;;;;;;475127;247;28073;-65
2023/12/29 08:11:06;;;;;;;5.00;2.73;;;8.60;99.90;;;;;;474978;250;27888;-67
2023/12/29 08:13:09;;;;;;;6.30;2.80;;;8.60;99.90;;;;;;475101;250;27891;-64
2023/12/29 08:15:09;;;;;;;5.07;2.90;;;8.60;99.90;;;;;;474982;247;28015;-65
2023/12/29 08:17:11;;;;;;;3.37;2.73;;;8.60;99.90;;;;;;475095;250;27959;-64
2023/12/29 08:19:11;;;;;;;3.77;3.37;;;8.70;99.90;;;;;;475099;250;27997;-65
2023/12/29 08:21:13;;;;;;;4.20;3.00;;;8.70;99.90;;;;;;475131;250;28096;-66
2023/12/29 08:23:14;;;;;;;7.43;2.90;;;8.60;99.90;;;;;;475075;250;28038;-65
2023/12/29 08:25:15;;;;;;;5.87;3.00;;;8.60;99.90;;;;;;475073;247;27652;-65
2023/12/29 08:27:17;;;;;;;3.30;3.00;;;8.70;99.90;;;;;;475100;250;27996;-65
2023/12/29 08:29:19;;;;;;;4.50;3.20;;;8.70;99.90;;;;;;477478;246;27938;-64
2023/12/29 08:31:19;;;;;;;4.70;3.00;;;8.70;99.90;;;;;;481114;247;27969;-65
2023/12/29 08:33:20;;;;;;;3.17;2.87;;;8.70;99.90;;;;;;481168;247;28063;-65
2023/12/29 08:35:22;;;;;;;4.73;2.97;;;8.70;99.90;;;;;;470818;247;27927;-65
2023/12/29 08:37:23;;;;;;;3.83;2.97;;;8.70;99.90;;;;;;470052;251;27812;-66
2023/12/29 08:39:24;;;;;;;3.70;2.50;;;8.70;99.90;;;;;;475508;246;28050;-65
2023/12/29 08:41:25;;;;;;;4.20;3.10;;;8.70;99.90;;;;;;479359;248;28136;-65
2023/12/29 08:43:26;;;;;;;3.27;2.97;;;8.70;99.90;;;;;;479303;248;28463;-70
2023/12/29 08:45:28;;;;;;;4.20;3.10;;;8.70;99.90;;;;;;470527;248;28439;-71
2023/12/29 08:47:29;;;;;;;3.13;2.83;;;8.70;99.90;;;;;;470012;251;28437;-72
2023/12/29 08:49:30;;;;;;;3.87;2.83;;;8.80;99.90;;;;;;474247;248;27871;-70
2023/12/29 08:51:31;;;;;;;5.57;3.73;;;8.80;99.90;;;;;;479324;248;27882;-72
2023/12/29 08:53:35;;;;;;;4.17;3.17;;;8.80;99.90;;;;;;479186;248;27517;-71
2023/12/29 08:55:34;;;;;;;3.23;2.93;;;8.80;99.90;;;;;;479100;248;27949;-70
2023/12/29 08:57:35;;;;;;;3.77;3.30;;;8.80;99.90;;;;;;479312;248;27908;-74
2023/12/29 08:59:36;;;;;;;6.17;4.23;;;8.80;99.90;;;;;;479267;248;27710;-72
2023/12/29 09:01:38;;;;;;;27.70;14.47;;;8.90;99.90;;;;;;479334;248;27542;-71
2023/12/29 09:03:39;;;;;;;9.10;5.00;;;8.90;99.90;;;;;;479235;248;27636;-71
2023/12/29 09:05:40;;;;;;;6.90;3.67;;;8.90;99.90;;;;;;479180;248;27755;-70
2023/12/29 09:07:41;;;;;;;4.03;2.80;;;8.90;99.90;;;;;;479239;248;27638;-73
2023/12/29 09:09:43;;;;;;;3.53;3.20;;;9.00;99.90;;;;;;479341;248;28328;-71
2023/12/29 09:11:44;;;;;;;4.10;3.00;;;9.00;99.90;;;;;;479355;248;28239;-72
2023/12/29 09:13:45;;;;;;;4.20;3.27;;;9.00;99.90;;;;;;479305;248;27988;-73
2023/12/29 09:15:46;;;;;;;2.43;2.27;;;9.00;99.90;;;;;;479354;248;28229;-71
2023/12/29 09:17:48;;;;;;;7.30;2.43;;;9.10;99.90;;;;;;479336;248;28259;-72
2023/12/29 09:19:49;;;;;;;2.73;2.50;;;9.10;99.90;;;;;;479331;248;27755;-71
2023/12/29 09:21:50;;;;;;;2.53;2.40;;;9.10;99.90;;;;;;479244;247;27544;-71
2023/12/29 09:23:52;;;;;;;2.77;2.57;;;9.10;99.90;;;;;;479275;248;28374;-73
2023/12/29 09:25:53;;;;;;;5.40;2.80;;;9.10;99.90;;;;;;479301;248;27949;-71
2023/12/29 09:27:54;;;;;;;2.50;2.30;;;9.10;99.90;;;;;;479323;248;28225;-72
2023/12/29 09:29:55;;;;;;;3.90;2.60;;;9.10;99.90;;;;;;479320;248;28363;-71
2023/12/29 09:31:57;;;;;;;4.47;3.07;;;9.10;99.90;;;;;;478801;248;28443;-72
2023/12/29 09:33:58;;;;;;;2.47;2.00;;;9.10;99.90;;;;;;476156;249;27756;-72
2023/12/29 09:35:59;;;;;;;2.60;2.40;;;9.10;99.90;;;;;;476163;249;27728;-70
2023/12/29 09:38:01;;;;;;;2.43;2.23;;;9.10;99.90;;;;;;474098;249;27935;-71
2023/12/29 09:40:02;;;;;;;2.70;2.50;;;9.10;99.90;;;;;;472971;249;27542;-71
2023/12/29 09:42:03;;;;;;;2.83;2.60;;;9.00;99.90;;;;;;470820;249;28330;-71
2023/12/29 09:44:04;;;;;;;2.50;2.30;;;9.00;99.90;;;;;;478049;248;27524;-71
2023/12/29 09:46:05;;;;;;;7.47;3.57;;;9.00;99.90;;;;;;478064;246;27784;-71
2023/12/29 09:48:07;;;;;;;6.10;2.30;;;9.00;99.90;;;;;;471659;248;28003;-71
2023/12/29 09:50:08;;;;;;;2.53;2.17;;;9.00;99.90;;;;;;460764;257;28019;-72
2023/12/29 09:52:09;;;;;;;2.83;2.40;;;9.00;99.90;;;;;;463335;257;27627;-71
2023/12/29 09:54:10;;;;;;;5.23;3.10;;;9.00;99.90;;;;;;480044;248;28015;-71
2023/12/29 09:56:12;;;;;;;5.10;2.60;;;9.00;99.90;;;;;;468879;254;27470;-71
2023/12/29 09:58:13;;;;;;;2.60;2.40;;;9.00;99.90;;;;;;469655;250;27778;-70
2023/12/29 10:00:14;;;;;;;3.37;2.27;;;8.90;99.90;;;;;;469923;253;27635;-71
2023/12/29 10:02:18;;;;;;;9.60;4.10;;;8.90;99.90;;;;;;470860;250;28436;-70
2023/12/29 10:04:20;;;;;;;5.77;2.80;;;8.90;99.90;;;;;;474917;250;27829;-73
2023/12/29 10:06:21;;;;;;;2.40;2.20;;;9.00;99.90;;;;;;471059;251;27876;-71
2023/12/29 10:08:22;;;;;;;5.40;2.10;;;8.90;99.90;;;;;;469364;251;28045;-71
2023/12/29 10:10:24;;;;;;;3.23;2.30;;;9.00;99.90;;;;;;467868;253;28001;-71
2023/12/29 10:12:25;;;;;;;5.80;2.70;;;9.00;99.90;;;;;;467971;254;28010;-71
2023/12/29 10:14:26;;;;;;;2.40;2.20;;;8.90;99.90;;;;;;467811;253;27839;-71
2023/12/29 10:16:30;;;;;;;3.63;2.40;;;8.90;99.90;;;;;;467950;253;28200;-71
2023/12/29 10:18:31;;;;;;;3.13;2.60;;;9.00;99.90;;;;;;467865;254;28101;-70
2023/12/29 10:20:32;;;;;;;2.90;2.23;;;9.00;99.90;;;;;;468020;254;27998;-71
2023/12/29 10:22:34;;;;;;;2.90;2.47;;;9.00;99.90;;;;;;468002;253;27985;-71
2023/12/29 10:24:37;;;;;;;4.90;2.20;;;9.10;99.90;;;;;;467962;254;28063;-71
2023/12/29 10:26:39;;;;;;;3.37;2.37;;;9.00;99.90;;;;;;468019;253;28002;-71
2023/12/29 10:28:40;;;;;;;2.17;2.03;;;9.10;99.90;;;;;;468006;253;28002;-71
2023/12/29 10:30:41;;;;;;;4.13;2.67;;;9.20;99.90;;;;;;467993;253;27866;-72
2023/12/29 10:32:43;;;;;;;2.63;2.40;;;9.20;99.90;;;;;;468010;253;28459;-72
2023/12/29 10:34:47;;;;;;;2.40;1.90;;;9.20;99.90;;;;;;467977;253;28574;-72
2023/12/29 10:36:45;;;;;;;2.97;2.20;;;9.20;99.90;;;;;;467842;254;28114;-72
2023/12/29 10:38:48;;;;;;;3.40;2.57;;;9.30;99.90;;;;;;468023;253;28184;-71
2023/12/29 10:40:47;;;;;;;2.40;2.17;;;9.40;99.90;;;;;;467957;254;28482;-71
2023/12/29 10:42:52;;;;;;;5.23;2.20;;;9.50;99.90;;;;;;483635;246;27850;-72
2023/12/29 10:44:50;;;;;;;3.70;2.10;;;9.50;99.90;;;;;;483754;245;27847;-71
2023/12/29 10:46:54;;;;;;;3.80;2.40;;;9.50;99.90;;;;;;483954;246;27848;-71